Weather at Boronów

Public forecast

Using degrees Celsius for public forecast. Weather courtesy of forecast.io.

Closest aviation weather report (METAR) to Boronów

Closest report is Katowice Wojciech Korfanty International Airport, 13.8 nm (25.6 km) SSE.

2024/05/28 14:00 (retrieved 30 minutes ago)

EPKT 281400Z 09010KT 050V120 CAVOK 26/06 Q1014

Closest aviation forecast (TAF) to Boronów

Closest forecast is Katowice Wojciech Korfanty International Airport, 13.8 nm (25.6 km) SSE.

2024/05/28 12:37 (retrieved 2 hours ago)

TAF EPKT 281130Z 2812/2912 13007KT 9999 SCT047CB BECMG 2812/2814 CAVOK BECMG 2818/2820 31015G25KT TEMPO 2818/2820 BKN040CB BECMG 2820/2822 31008KT BKN013 BECMG 2906/2908 BKN020